sensor_id;sensor_type;location;lat;lon;timestamp;P1;durP1;ratioP1;P2;durP2;ratioP2
31087;SDS011;17745;55.914;37.554;2022-09-17T00:43:11;13.57;;;8.98;;
31087;SDS011;17745;55.914;37.554;2022-09-17T00:53:49;17.60;;;9.80;;
31087;SDS011;17745;55.914;37.554;2022-09-17T01:51:22;10.10;;;6.43;;
31087;SDS011;17745;55.914;37.554;2022-09-17T01:54:13;10.27;;;6.03;;
31087;SDS011;17745;55.914;37.554;2022-09-17T01:56:55;9.60;;;6.60;;
31087;SDS011;17745;55.914;37.554;2022-09-17T01:59:39;14.95;;;6.57;;
31087;SDS011;17745;55.914;37.554;2022-09-17T02:02:44;9.32;;;5.55;;
31087;SDS011;17745;55.914;37.554;2022-09-17T02:31:07;10.30;;;5.93;;
31087;SDS011;17745;55.914;37.554;2022-09-17T02:33:54;8.30;;;5.22;;
31087;SDS011;17745;55.914;37.554;2022-09-17T02:36:32;9.70;;;5.37;;
31087;SDS011;17745;55.914;37.554;2022-09-17T02:39:10;13.75;;;5.80;;
31087;SDS011;17745;55.914;37.554;2022-09-17T02:42:01;10.23;;;5.72;;
31087;SDS011;17745;55.914;37.554;2022-09-17T02:44:56;8.40;;;4.37;;
31087;SDS011;17745;55.914;37.554;2022-09-17T02:48:22;7.85;;;5.12;;
31087;SDS011;17745;55.914;37.554;2022-09-17T02:52:02;14.85;;;5.85;;
31087;SDS011;17745;55.914;37.554;2022-09-17T02:56:00;11.02;;;5.45;;
31087;SDS011;17745;55.914;37.554;2022-09-17T03:14:15;9.38;;;5.07;;
31087;SDS011;17745;55.914;37.554;2022-09-17T03:17:07;8.88;;;4.70;;
31087;SDS011;17745;55.914;37.554;2022-09-17T03:19:58;11.02;;;4.87;;
31087;SDS011;17745;55.914;37.554;2022-09-17T03:23:05;8.40;;;4.93;;
31087;SDS011;17745;55.914;37.554;2022-09-17T03:26:18;9.75;;;5.30;;
31087;SDS011;17745;55.914;37.554;2022-09-17T03:33:25;8.82;;;4.97;;
31087;SDS011;17745;55.914;37.554;2022-09-17T03:36:13;13.02;;;4.90;;
31087;SDS011;17745;55.914;37.554;2022-09-17T03:39:01;10.27;;;5.37;;
31087;SDS011;17745;55.914;37.554;2022-09-17T03:41:51;13.82;;;5.15;;
31087;SDS011;17745;55.914;37.554;2022-09-17T03:44:21;11.27;;;4.40;;
31087;SDS011;17745;55.914;37.554;2022-09-17T03:47:14;9.18;;;5.25;;
31087;SDS011;17745;55.914;37.554;2022-09-17T07:15:53;17.00;;;3.20;;
31087;SDS011;17745;55.914;37.554;2022-09-17T07:22:09;10.35;;;2.60;;
31087;SDS011;17745;55.914;37.554;2022-09-17T07:24:59;14.45;;;3.90;;
31087;SDS011;17745;55.914;37.554;2022-09-17T07:28:05;6.68;;;2.35;;
31087;SDS011;17745;55.914;37.554;2022-09-17T07:34:09;8.98;;;2.58;;
31087;SDS011;17745;55.914;37.554;2022-09-17T07:43:58;11.00;;;2.72;;
31087;SDS011;17745;55.914;37.554;2022-09-17T12:43:18;6.90;;;1.73;;
31087;SDS011;17745;55.914;37.554;2022-09-17T12:46:13;9.93;;;1.77;;
31087;SDS011;17745;55.914;37.554;2022-09-17T12:49:18;11.93;;;1.98;;
31087;SDS011;17745;55.914;37.554;2022-09-17T12:52:35;12.00;;;2.47;;
31087;SDS011;17745;55.914;37.554;2022-09-17T12:55:34;8.00;;;2.08;;
31087;SDS011;17745;55.914;37.554;2022-09-17T12:58:18;7.55;;;1.83;;
31087;SDS011;17745;55.914;37.554;2022-09-17T13:01:00;9.90;;;2.22;;
31087;SDS011;17745;55.914;37.554;2022-09-17T13:03:41;6.57;;;1.83;;
31087;SDS011;17745;55.914;37.554;2022-09-17T13:09:38;6.30;;;2.30;;
31087;SDS011;17745;55.914;37.554;2022-09-17T13:12:43;9.45;;;2.30;;
31087;SDS011;17745;55.914;37.554;2022-09-17T13:18:57;5.47;;;1.70;;
31087;SDS011;17745;55.914;37.554;2022-09-17T13:21:46;6.75;;;2.00;;
31087;SDS011;17745;55.914;37.554;2022-09-17T13:24:22;6.22;;;2.20;;
31087;SDS011;17745;55.914;37.554;2022-09-17T13:27:22;13.38;;;2.10;;
31087;SDS011;17745;55.914;37.554;2022-09-17T13:30:00;7.30;;;2.40;;
31087;SDS011;17745;55.914;37.554;2022-09-17T13:32:51;4.28;;;1.77;;
31087;SDS011;17745;55.914;37.554;2022-09-17T13:38:20;6.20;;;1.98;;
31087;SDS011;17745;55.914;37.554;2022-09-17T13:41:17;11.93;;;2.50;;
31087;SDS011;17745;55.914;37.554;2022-09-17T13:44:02;7.93;;;2.25;;
31087;SDS011;17745;55.914;37.554;2022-09-17T13:47:20;12.25;;;2.22;;
31087;SDS011;17745;55.914;37.554;2022-09-17T13:50:06;5.37;;;2.10;;
31087;SDS011;17745;55.914;37.554;2022-09-17T13:52:51;5.50;;;2.30;;
31087;SDS011;17745;55.914;37.554;2022-09-17T13:55:43;11.80;;;2.62;;
31087;SDS011;17745;55.914;37.554;2022-09-17T13:58:21;12.88;;;2.15;;
31087;SDS011;17745;55.914;37.554;2022-09-17T14:01:15;8.27;;;2.20;;
31087;SDS011;17745;55.914;37.554;2022-09-17T14:04:50;9.15;;;2.50;;
31087;SDS011;17745;55.914;37.554;2022-09-17T14:10:33;5.53;;;2.20;;
31087;SDS011;17745;55.914;37.554;2022-09-17T14:16:40;8.32;;;2.10;;
31087;SDS011;17745;55.914;37.554;2022-09-17T14:19:42;9.45;;;1.83;;
31087;SDS011;17745;55.914;37.554;2022-09-17T14:22:34;8.52;;;2.10;;
31087;SDS011;17745;55.914;37.554;2022-09-17T14:25:13;13.75;;;2.37;;
31087;SDS011;17745;55.914;37.554;2022-09-17T14:27:57;6.53;;;3.05;;
31087;SDS011;17745;55.914;37.554;2022-09-17T14:30:46;9.60;;;3.45;;
31087;SDS011;17745;55.914;37.554;2022-09-17T14:33:43;8.13;;;2.62;;
31087;SDS011;17745;55.914;37.554;2022-09-17T14:36:13;16.12;;;3.22;;
31087;SDS011;17745;55.914;37.554;2022-09-17T14:38:49;8.95;;;1.90;;
31087;SDS011;17745;55.914;37.554;2022-09-17T14:43:57;7.37;;;1.98;;
31087;SDS011;17745;55.914;37.554;2022-09-17T14:46:29;6.18;;;1.30;;
31087;SDS011;17745;55.914;37.554;2022-09-17T14:49:18;6.18;;;1.30;;
31087;SDS011;17745;55.914;37.554;2022-09-17T14:51:49;8.18;;;2.45;;
31087;SDS011;17745;55.914;37.554;2022-09-17T14:54:21;11.02;;;2.12;;
31087;SDS011;17745;55.914;37.554;2022-09-17T14:56:54;8.23;;;2.17;;
31087;SDS011;17745;55.914;37.554;2022-09-17T14:59:28;8.52;;;2.03;;
31087;SDS011;17745;55.914;37.554;2022-09-17T15:02:19;4.53;;;1.50;;
31087;SDS011;17745;55.914;37.554;2022-09-17T15:04:56;8.95;;;1.60;;
31087;SDS011;17745;55.914;37.554;2022-09-17T15:07:28;11.85;;;1.65;;
31087;SDS011;17745;55.914;37.554;2022-09-17T15:10:04;6.18;;;1.85;;
31087;SDS011;17745;55.914;37.554;2022-09-17T15:12:37;8.98;;;2.03;;
31087;SDS011;17745;55.914;37.554;2022-09-17T15:15:13;9.43;;;2.22;;
31087;SDS011;17745;55.914;37.554;2022-09-17T15:17:45;3.50;;;1.50;;
31087;SDS011;17745;55.914;37.554;2022-09-17T15:20:15;6.47;;;2.05;;
31087;SDS011;17745;55.914;37.554;2022-09-17T15:23:00;4.75;;;2.22;;
31087;SDS011;17745;55.914;37.554;2022-09-17T15:25:46;10.95;;;2.65;;
31087;SDS011;17745;55.914;37.554;2022-09-17T15:28:27;8.60;;;3.20;;
31087;SDS011;17745;55.914;37.554;2022-09-17T15:30:59;8.57;;;3.08;;
31087;SDS011;17745;55.914;37.554;2022-09-17T15:33:28;13.40;;;3.75;;
31087;SDS011;17745;55.914;37.554;2022-09-17T15:36:01;10.80;;;2.35;;
31087;SDS011;17745;55.914;37.554;2022-09-17T15:38:37;9.73;;;2.40;;
31087;SDS011;17745;55.914;37.554;2022-09-17T15:41:27;9.18;;;2.83;;
31087;SDS011;17745;55.914;37.554;2022-09-17T15:44:12;12.55;;;2.95;;
31087;SDS011;17745;55.914;37.554;2022-09-17T15:46:43;15.13;;;2.92;;
31087;SDS011;17745;55.914;37.554;2022-09-17T15:49:26;5.60;;;2.67;;
31087;SDS011;17745;55.914;37.554;2022-09-17T15:54:53;7.95;;;3.00;;
31087;SDS011;17745;55.914;37.554;2022-09-17T15:57:20;13.40;;;2.60;;
31087;SDS011;17745;55.914;37.554;2022-09-17T15:59:51;9.15;;;2.92;;
31087;SDS011;17745;55.914;37.554;2022-09-17T16:02:25;14.32;;;3.12;;
31087;SDS011;17745;55.914;37.554;2022-09-17T16:05:19;8.23;;;3.05;;
31087;SDS011;17745;55.914;37.554;2022-09-17T16:08:21;6.65;;;2.85;;
31087;SDS011;17745;55.914;37.554;2022-09-17T16:11:00;6.75;;;2.60;;
31087;SDS011;17745;55.914;37.554;2022-09-17T16:13:32;9.98;;;3.12;;
31087;SDS011;17745;55.914;37.554;2022-09-17T16:16:03;14.30;;;3.05;;
31087;SDS011;17745;55.914;37.554;2022-09-17T16:18:35;7.70;;;2.50;;
31087;SDS011;17745;55.914;37.554;2022-09-17T16:21:04;8.85;;;3.20;;
31087;SDS011;17745;55.914;37.554;2022-09-17T16:23:36;10.05;;;2.62;;
31087;SDS011;17745;55.914;37.554;2022-09-17T16:26:05;9.13;;;4.10;;
31087;SDS011;17745;55.914;37.554;2022-09-17T16:28:36;7.68;;;3.00;;
31087;SDS011;17745;55.914;37.554;2022-09-17T16:31:08;6.90;;;2.70;;
31087;SDS011;17745;55.914;37.554;2022-09-17T16:33:40;13.35;;;3.80;;
31087;SDS011;17745;55.914;37.554;2022-09-17T16:36:09;7.93;;;3.30;;
31087;SDS011;17745;55.914;37.554;2022-09-17T16:38:39;6.40;;;3.08;;
31087;SDS011;17745;55.914;37.554;2022-09-17T16:41:07;14.57;;;3.37;;
31087;SDS011;17745;55.914;37.554;2022-09-17T16:43:35;8.85;;;3.53;;
31087;SDS011;17745;55.914;37.554;2022-09-17T16:46:05;9.20;;;4.22;;
31087;SDS011;17745;55.914;37.554;2022-09-17T16:48:35;10.25;;;3.50;;
31087;SDS011;17745;55.914;37.554;2022-09-17T16:51:05;10.00;;;3.30;;
31087;SDS011;17745;55.914;37.554;2022-09-17T16:53:33;9.57;;;3.83;;
31087;SDS011;17745;55.914;37.554;2022-09-17T16:56:13;9.75;;;3.85;;
31087;SDS011;17745;55.914;37.554;2022-09-17T16:58:41;9.43;;;3.20;;
31087;SDS011;17745;55.914;37.554;2022-09-17T17:01:10;8.25;;;3.25;;
31087;SDS011;17745;55.914;37.554;2022-09-17T17:03:38;7.12;;;3.37;;
31087;SDS011;17745;55.914;37.554;2022-09-17T17:06:13;13.23;;;3.78;;
31087;SDS011;17745;55.914;37.554;2022-09-17T17:08:41;9.07;;;3.17;;
31087;SDS011;17745;55.914;37.554;2022-09-17T17:11:09;12.18;;;3.50;;
31087;SDS011;17745;55.914;37.554;2022-09-17T17:13:40;11.05;;;3.87;;
31087;SDS011;17745;55.914;37.554;2022-09-17T17:16:10;9.48;;;3.90;;
31087;SDS011;17745;55.914;37.554;2022-09-17T17:18:44;18.48;;;4.18;;
31087;SDS011;17745;55.914;37.554;2022-09-17T17:21:15;11.52;;;3.78;;
31087;SDS011;17745;55.914;37.554;2022-09-17T17:23:43;10.93;;;4.55;;
31087;SDS011;17745;55.914;37.554;2022-09-17T17:26:16;12.23;;;3.90;;
31087;SDS011;17745;55.914;37.554;2022-09-17T17:28:45;15.82;;;4.37;;
31087;SDS011;17745;55.914;37.554;2022-09-17T17:31:14;9.00;;;4.12;;
31087;SDS011;17745;55.914;37.554;2022-09-17T17:33:46;11.60;;;4.45;;
31087;SDS011;17745;55.914;37.554;2022-09-17T17:36:17;8.45;;;4.35;;
31087;SDS011;17745;55.914;37.554;2022-09-17T17:38:47;11.32;;;4.43;;
31087;SDS011;17745;55.914;37.554;2022-09-17T17:41:17;7.82;;;4.32;;
31087;SDS011;17745;55.914;37.554;2022-09-17T17:43:51;8.80;;;4.15;;
31087;SDS011;17745;55.914;37.554;2022-09-17T17:46:20;20.02;;;4.37;;
31087;SDS011;17745;55.914;37.554;2022-09-17T17:49:02;10.48;;;4.05;;
31087;SDS011;17745;55.914;37.554;2022-09-17T17:51:33;10.77;;;3.97;;
31087;SDS011;17745;55.914;37.554;2022-09-17T17:54:04;10.82;;;4.15;;
31087;SDS011;17745;55.914;37.554;2022-09-17T17:56:37;10.05;;;4.00;;
31087;SDS011;17745;55.914;37.554;2022-09-17T17:59:07;9.50;;;3.67;;
31087;SDS011;17745;55.914;37.554;2022-09-17T18:01:35;10.20;;;3.87;;
31087;SDS011;17745;55.914;37.554;2022-09-17T18:04:08;8.55;;;4.10;;
31087;SDS011;17745;55.914;37.554;2022-09-17T18:06:46;14.98;;;4.40;;
31087;SDS011;17745;55.914;37.554;2022-09-17T18:09:48;7.32;;;3.65;;
31087;SDS011;17745;55.914;37.554;2022-09-17T18:15:11;6.82;;;3.10;;
31087;SDS011;17745;55.914;37.554;2022-09-17T18:17:40;12.15;;;3.67;;
31087;SDS011;17745;55.914;37.554;2022-09-17T18:20:08;10.30;;;4.03;;
31087;SDS011;17745;55.914;37.554;2022-09-17T18:22:36;7.57;;;3.37;;
31087;SDS011;17745;55.914;37.554;2022-09-17T18:25:05;11.00;;;3.83;;
31087;SDS011;17745;55.914;37.554;2022-09-17T18:27:36;9.65;;;4.75;;
31087;SDS011;17745;55.914;37.554;2022-09-17T18:30:10;9.65;;;4.18;;
31087;SDS011;17745;55.914;37.554;2022-09-17T18:32:39;8.48;;;3.65;;
31087;SDS011;17745;55.914;37.554;2022-09-17T18:35:08;10.82;;;3.85;;
31087;SDS011;17745;55.914;37.554;2022-09-17T18:37:43;11.02;;;3.87;;
31087;SDS011;17745;55.914;37.554;2022-09-17T18:40:11;14.57;;;3.50;;
31087;SDS011;17745;55.914;37.554;2022-09-17T18:43:03;6.75;;;3.30;;
31087;SDS011;17745;55.914;37.554;2022-09-17T18:45:35;8.75;;;3.47;;
31087;SDS011;17745;55.914;37.554;2022-09-17T18:48:05;11.90;;;3.80;;
31087;SDS011;17745;55.914;37.554;2022-09-17T18:50:56;12.65;;;3.37;;
31087;SDS011;17745;55.914;37.554;2022-09-17T18:53:35;7.87;;;3.67;;
31087;SDS011;17745;55.914;37.554;2022-09-17T18:56:09;8.60;;;3.80;;
31087;SDS011;17745;55.914;37.554;2022-09-17T18:58:50;7.30;;;3.50;;
31087;SDS011;17745;55.914;37.554;2022-09-17T19:02:26;7.65;;;3.62;;
31087;SDS011;17745;55.914;37.554;2022-09-17T19:04:54;7.80;;;3.17;;
31087;SDS011;17745;55.914;37.554;2022-09-17T19:07:23;7.95;;;3.15;;
31087;SDS011;17745;55.914;37.554;2022-09-17T19:09:59;10.60;;;3.37;;
31087;SDS011;17745;55.914;37.554;2022-09-17T19:12:47;7.12;;;3.83;;
31087;SDS011;17745;55.914;37.554;2022-09-17T19:15:16;7.45;;;3.30;;
31087;SDS011;17745;55.914;37.554;2022-09-17T19:17:48;5.75;;;3.28;;
31087;SDS011;17745;55.914;37.554;2022-09-17T19:20:28;9.68;;;3.55;;
31087;SDS011;17745;55.914;37.554;2022-09-17T19:23:01;7.55;;;3.62;;
31087;SDS011;17745;55.914;37.554;2022-09-17T19:25:30;21.02;;;4.50;;
31087;SDS011;17745;55.914;37.554;2022-09-17T19:27:57;10.73;;;2.92;;
31087;SDS011;17745;55.914;37.554;2022-09-17T19:30:44;6.57;;;3.65;;
31087;SDS011;17745;55.914;37.554;2022-09-17T19:33:16;12.07;;;3.05;;
31087;SDS011;17745;55.914;37.554;2022-09-17T19:35:45;7.90;;;3.22;;
31087;SDS011;17745;55.914;37.554;2022-09-17T19:38:40;6.57;;;2.97;;
31087;SDS011;17745;55.914;37.554;2022-09-17T19:41:26;6.93;;;2.85;;
31087;SDS011;17745;55.914;37.554;2022-09-17T19:44:02;7.07;;;3.30;;
31087;SDS011;17745;55.914;37.554;2022-09-17T19:47:07;9.10;;;3.50;;
31087;SDS011;17745;55.914;37.554;2022-09-17T19:49:36;6.18;;;3.08;;
31087;SDS011;17745;55.914;37.554;2022-09-17T19:52:07;8.27;;;3.37;;
31087;SDS011;17745;55.914;37.554;2022-09-17T19:54:35;10.43;;;3.42;;
31087;SDS011;17745;55.914;37.554;2022-09-17T19:57:03;10.20;;;3.62;;
31087;SDS011;17745;55.914;37.554;2022-09-17T19:59:32;8.63;;;3.83;;
31087;SDS011;17745;55.914;37.554;2022-09-17T20:02:00;6.75;;;3.58;;
31087;SDS011;17745;55.914;37.554;2022-09-17T20:04:32;7.75;;;3.75;;
31087;SDS011;17745;55.914;37.554;2022-09-17T20:07:02;11.50;;;3.62;;
31087;SDS011;17745;55.914;37.554;2022-09-17T20:09:31;6.65;;;3.53;;
31087;SDS011;17745;55.914;37.554;2022-09-17T20:12:00;10.75;;;3.70;;
31087;SDS011;17745;55.914;37.554;2022-09-17T20:14:28;13.13;;;3.95;;
31087;SDS011;17745;55.914;37.554;2022-09-17T20:16:58;9.27;;;4.00;;
31087;SDS011;17745;55.914;37.554;2022-09-17T20:19:26;11.70;;;3.75;;
31087;SDS011;17745;55.914;37.554;2022-09-17T20:21:54;6.43;;;3.58;;
31087;SDS011;17745;55.914;37.554;2022-09-17T20:24:28;7.53;;;3.42;;
31087;SDS011;17745;55.914;37.554;2022-09-17T20:26:56;10.43;;;3.92;;
31087;SDS011;17745;55.914;37.554;2022-09-17T20:29:33;7.87;;;3.50;;
31087;SDS011;17745;55.914;37.554;2022-09-17T20:32:00;8.00;;;3.60;;
31087;SDS011;17745;55.914;37.554;2022-09-17T20:34:29;8.38;;;3.67;;
31087;SDS011;17745;55.914;37.554;2022-09-17T20:36:58;8.95;;;3.62;;
31087;SDS011;17745;55.914;37.554;2022-09-17T20:39:27;18.05;;;4.05;;
31087;SDS011;17745;55.914;37.554;2022-09-17T20:41:57;8.95;;;4.37;;
31087;SDS011;17745;55.914;37.554;2022-09-17T20:44:25;7.65;;;3.65;;
31087;SDS011;17745;55.914;37.554;2022-09-17T20:46:52;9.93;;;4.10;;
31087;SDS011;17745;55.914;37.554;2022-09-17T20:49:20;11.30;;;3.83;;
31087;SDS011;17745;55.914;37.554;2022-09-17T20:51:48;14.15;;;4.10;;
31087;SDS011;17745;55.914;37.554;2022-09-17T20:54:18;9.57;;;4.10;;
31087;SDS011;17745;55.914;37.554;2022-09-17T20:56:47;7.15;;;3.87;;
31087;SDS011;17745;55.914;37.554;2022-09-17T20:59:15;7.47;;;3.90;;
31087;SDS011;17745;55.914;37.554;2022-09-17T21:02:06;9.82;;;4.47;;
31087;SDS011;17745;55.914;37.554;2022-09-17T21:04:36;10.15;;;5.03;;
31087;SDS011;17745;55.914;37.554;2022-09-17T21:07:20;7.72;;;4.15;;
31087;SDS011;17745;55.914;37.554;2022-09-17T21:09:50;8.65;;;4.25;;
31087;SDS011;17745;55.914;37.554;2022-09-17T21:12:36;11.12;;;4.43;;
31087;SDS011;17745;55.914;37.554;2022-09-17T21:15:16;7.75;;;4.12;;
31087;SDS011;17745;55.914;37.554;2022-09-17T21:17:53;10.70;;;3.95;;
31087;SDS011;17745;55.914;37.554;2022-09-17T21:20:28;11.90;;;4.30;;
31087;SDS011;17745;55.914;37.554;2022-09-17T21:23:21;8.25;;;4.12;;
31087;SDS011;17745;55.914;37.554;2022-09-17T21:26:02;11.80;;;4.43;;
31087;SDS011;17745;55.914;37.554;2022-09-17T21:28:40;9.27;;;4.62;;
31087;SDS011;17745;55.914;37.554;2022-09-17T21:31:14;10.13;;;4.47;;
31087;SDS011;17745;55.914;37.554;2022-09-17T21:33:51;10.23;;;4.60;;
31087;SDS011;17745;55.914;37.554;2022-09-17T21:36:41;9.70;;;4.90;;
31087;SDS011;17745;55.914;37.554;2022-09-17T21:39:21;9.55;;;4.45;;
31087;SDS011;17745;55.914;37.554;2022-09-17T21:41:50;11.00;;;4.57;;
31087;SDS011;17745;55.914;37.554;2022-09-17T21:44:21;8.80;;;4.80;;
31087;SDS011;17745;55.914;37.554;2022-09-17T21:46:49;13.20;;;6.37;;
31087;SDS011;17745;55.914;37.554;2022-09-17T21:49:22;11.02;;;4.55;;
31087;SDS011;17745;55.914;37.554;2022-09-17T21:51:52;11.12;;;5.05;;
31087;SDS011;17745;55.914;37.554;2022-09-17T21:54:21;11.00;;;5.28;;
31087;SDS011;17745;55.914;37.554;2022-09-17T21:56:49;8.85;;;4.55;;
31087;SDS011;17745;55.914;37.554;2022-09-17T21:59:16;12.18;;;5.05;;
31087;SDS011;17745;55.914;37.554;2022-09-17T22:01:47;8.77;;;4.90;;
31087;SDS011;17745;55.914;37.554;2022-09-17T22:04:17;9.18;;;5.30;;
31087;SDS011;17745;55.914;37.554;2022-09-17T22:06:47;13.07;;;5.95;;
31087;SDS011;17745;55.914;37.554;2022-09-17T22:09:17;10.25;;;4.50;;
31087;SDS011;17745;55.914;37.554;2022-09-17T22:11:46;14.10;;;5.85;;
31087;SDS011;17745;55.914;37.554;2022-09-17T22:14:16;11.20;;;5.40;;
31087;SDS011;17745;55.914;37.554;2022-09-17T22:16:47;7.78;;;4.87;;
31087;SDS011;17745;55.914;37.554;2022-09-17T22:19:18;8.40;;;4.53;;
31087;SDS011;17745;55.914;37.554;2022-09-17T22:21:49;10.15;;;4.95;;
31087;SDS011;17745;55.914;37.554;2022-09-17T22:24:18;11.12;;;5.25;;
31087;SDS011;17745;55.914;37.554;2022-09-17T22:26:47;12.60;;;5.07;;
31087;SDS011;17745;55.914;37.554;2022-09-17T22:29:17;8.60;;;4.97;;
31087;SDS011;17745;55.914;37.554;2022-09-17T22:31:48;8.93;;;5.18;;
31087;SDS011;17745;55.914;37.554;2022-09-17T22:34:28;12.20;;;5.05;;
31087;SDS011;17745;55.914;37.554;2022-09-17T22:36:56;9.43;;;4.75;;
31087;SDS011;17745;55.914;37.554;2022-09-17T22:39:24;14.27;;;4.90;;
31087;SDS011;17745;55.914;37.554;2022-09-17T22:41:52;9.57;;;5.00;;
31087;SDS011;17745;55.914;37.554;2022-09-17T22:44:21;13.68;;;4.90;;
31087;SDS011;17745;55.914;37.554;2022-09-17T22:46:50;12.32;;;4.87;;
31087;SDS011;17745;55.914;37.554;2022-09-17T22:49:18;14.98;;;4.45;;
31087;SDS011;17745;55.914;37.554;2022-09-17T22:51:45;13.75;;;4.68;;
31087;SDS011;17745;55.914;37.554;2022-09-17T22:54:14;9.88;;;5.75;;
31087;SDS011;17745;55.914;37.554;2022-09-17T22:56:42;13.02;;;4.93;;
31087;SDS011;17745;55.914;37.554;2022-09-17T22:59:15;12.30;;;6.03;;
31087;SDS011;17745;55.914;37.554;2022-09-17T23:01:44;12.23;;;5.18;;
31087;SDS011;17745;55.914;37.554;2022-09-17T23:04:13;11.60;;;5.12;;
31087;SDS011;17745;55.914;37.554;2022-09-17T23:06:41;13.70;;;5.10;;
31087;SDS011;17745;55.914;37.554;2022-09-17T23:09:10;8.65;;;4.72;;
31087;SDS011;17745;55.914;37.554;2022-09-17T23:11:38;8.75;;;4.85;;
31087;SDS011;17745;55.914;37.554;2022-09-17T23:14:06;10.30;;;5.20;;
31087;SDS011;17745;55.914;37.554;2022-09-17T23:16:37;13.25;;;4.95;;
31087;SDS011;17745;55.914;37.554;2022-09-17T23:19:05;12.05;;;4.82;;
31087;SDS011;17745;55.914;37.554;2022-09-17T23:21:34;14.25;;;6.45;;
31087;SDS011;17745;55.914;37.554;2022-09-17T23:24:04;12.43;;;5.30;;
31087;SDS011;17745;55.914;37.554;2022-09-17T23:26:32;8.25;;;4.95;;
31087;SDS011;17745;55.914;37.554;2022-09-17T23:28:59;11.23;;;4.93;;
31087;SDS011;17745;55.914;37.554;2022-09-17T23:31:28;10.27;;;5.15;;
31087;SDS011;17745;55.914;37.554;2022-09-17T23:33:55;11.07;;;6.03;;
31087;SDS011;17745;55.914;37.554;2022-09-17T23:36:24;15.50;;;7.35;;
31087;SDS011;17745;55.914;37.554;2022-09-17T23:38:56;13.15;;;6.80;;
31087;SDS011;17745;55.914;37.554;2022-09-17T23:41:28;11.02;;;5.65;;
31087;SDS011;17745;55.914;37.554;2022-09-17T23:43:58;12.25;;;5.30;;
31087;SDS011;17745;55.914;37.554;2022-09-17T23:46:27;10.25;;;5.78;;
31087;SDS011;17745;55.914;37.554;2022-09-17T23:48:57;10.93;;;5.65;;
31087;SDS011;17745;55.914;37.554;2022-09-17T23:51:25;11.73;;;5.10;;
31087;SDS011;17745;55.914;37.554;2022-09-17T23:53:56;13.25;;;4.72;;
31087;SDS011;17745;55.914;37.554;2022-09-17T23:56:25;8.85;;;5.30;;
31087;SDS011;17745;55.914;37.554;2022-09-17T23:58:54;14.25;;;4.93;;
